VAM Template | Jonatha

Virtual Airlines Manager! A new look to your va. By: Jonatha Silva




 METAR AND TAF INFORMATION
METAR FOR LIEO
ADDS - METARS form results

(2108 UTC 23 April 2019)
Data provider http://aviationweather.gov/metar/data/
 
METAR text: LIEO 232050Z 24004KT 9999 SCT040 15/12 Q1009
Conditions at: LIEO (OLBIA/COSTA SMER, IT) observed 2050 UTC 23 April 2019
Temperature: 15.0°C (59°F)
Dewpoint: 12.0°C (54°F) [RH = 82%]
Pressure (altimeter): 29.79 inches Hg (1009.0 mb)
Winds: from the WSW (240 degrees) at 5 MPH (4 knots; 2.1 m/s)
Visibility: 6 or more miles (10+ km)
Ceiling: at least 12,000 feet AGL
Clouds: scattered clouds at 4000 feet AGL
Weather: no significant weather observed at this time

METAR text: LIEO 232020Z 18005KT 9999 SCT040 16/12 Q1009
Conditions at: LIEO (OLBIA/COSTA SMER, IT) observed 2020 UTC 23 April 2019
Temperature: 16.0°C (61°F)
Dewpoint: 12.0°C (54°F) [RH = 77%]
Pressure (altimeter): 29.79 inches Hg (1009.0 mb)
Winds: from the S (180 degrees) at 6 MPH (5 knots; 2.6 m/s)
Visibility: 6 or more miles (10+ km)
Ceiling: at least 12,000 feet AGL
Clouds: scattered clouds at 4000 feet AGL
Weather: no significant weather observed at this time

Forecast for: LIEO (OLBIA/COSTA SMER, IT)
Text: TAF LIEO 231700Z 2318/2418 23008KT 9999 SCT030
Forecast period: 1800 UTC 23 April 2019 to 0800 UTC 24 April 2019
Forecast type: FROM: standard forecast or significant change
Winds: from the SW (230 degrees) at 9 MPH (8 knots; 4.1 m/s)
Visibility: 6 or more miles 10+ km)
Ceiling: at least 12,000 feet AGL
Clouds: scattered clouds at 3000 feet AGL
Weather: no significant weather forecast for this period
Text: BECMG 2408/2410 06010KT
Forecast period: 0800 to 1800 UTC 24 April 2019
Forecast type: BECOMING: Conditions expected to become as follows by 1000 UTC 24 April 2019
Winds: from the ENE (60 degrees) at 12 MPH (10 knots; 5.1 m/s)
Visibility: 6 or more miles 10+ km)
Ceiling: at least 12,000 feet AGL
Clouds: scattered clouds at 3000 feet AGL
Weather: no significant weather forecast for this period

 AIRPORT MAP

 RUNWAY INFORMATION
Runway 05 Runway length 8025 ft Runway width 148 ft
Runway elevation 35 ft Runway displaced threshold 805 ft Runway heading 53
Runway 23 Runway length 8025 ft Runway width 148 ft
Runway elevation 19 ft Runway displaced threshold 495 ft Runway heading 233

 AIRPORT FREQUENCIES
Type APP Name OLBIA RADA Frequency 125.95 MHZ
Type ATIS Name ATIS Frequency 113.9 MHZ
Type TWR Name OLBIA TWR Frequency 118.975 MHZ

 AIRPORT NEAR NAVIGATION AIDS
Type VOR-DME Name Olbia Costa Smeralda Frequency 113900 KHZ
Type NDB Name Olbia Costa Smeralda Frequency 357 KHZ